createdAt,value
2017-09-08T00:00:33.221Z,100348.27
2017-09-08T00:03:04.889Z,100346.56
2017-09-08T00:05:36.041Z,100339.88
2017-09-08T00:08:08.300Z,100330.56
2017-09-08T00:10:45.882Z,100330.60
2017-09-08T00:13:17.103Z,100326.09
2017-09-08T00:15:48.318Z,100326.70
2017-09-08T00:18:22.286Z,100316.77
2017-09-08T00:20:53.416Z,100311.20
2017-09-08T00:23:24.625Z,100308.67
2017-09-08T00:25:56.133Z,100307.08
2017-09-08T00:28:27.257Z,100305.82
2017-09-08T00:30:58.368Z,100310.59
2017-09-08T00:33:29.920Z,100306.50
2017-09-08T00:36:02.019Z,100299.22
2017-09-08T00:38:33.188Z,100299.81
2017-09-08T00:41:04.484Z,100306.46
2017-09-08T00:43:35.649Z,100307.48
2017-09-08T00:46:06.907Z,100302.86
2017-09-08T00:48:39.570Z,100299.16
2017-09-08T00:51:10.763Z,100293.10
2017-09-08T00:53:42.182Z,100287.87
2017-09-08T00:56:15.896Z,100289.00
2017-09-08T00:58:47.450Z,100283.36
2017-09-08T01:01:18.658Z,100284.19
2017-09-08T01:03:51.567Z,100282.22
2017-09-08T01:06:23.633Z,100286.43
2017-09-08T01:08:54.804Z,100287.59
2017-09-08T01:11:25.994Z,100288.46
2017-09-08T01:13:57.160Z,100292.70
2017-09-08T01:16:28.299Z,100299.62
2017-09-08T01:18:59.778Z,100293.27
2017-09-08T01:21:31.605Z,100301.05
2017-09-08T01:24:04.381Z,100301.34
2017-09-08T01:26:47.714Z,100299.67
2017-09-08T01:29:21.846Z,100295.77
2017-09-08T01:32:01.149Z,100286.37
2017-09-08T01:34:39.483Z,100287.52
2017-09-08T01:37:14.562Z,100286.48
2017-09-08T01:39:46.446Z,100284.22
2017-09-08T01:42:18.766Z,100286.78
2017-09-08T01:44:50.296Z,100282.89
2017-09-08T01:47:21.778Z,100274.91
2017-09-08T01:49:52.896Z,100273.12
2017-09-08T01:52:24.107Z,100280.41
2017-09-08T01:54:59.918Z,100280.34
2017-09-08T01:57:31.090Z,100274.75
2017-09-08T02:00:02.798Z,100281.03
2017-09-08T02:02:33.972Z,100283.98
2017-09-08T02:05:08.782Z,100283.48
2017-09-08T02:07:39.958Z,100278.05
2017-09-08T02:10:12.233Z,100271.55
2017-09-08T02:12:43.414Z,100268.64
2017-09-08T02:15:14.573Z,100275.86
2017-09-08T02:17:45.908Z,100264.38
2017-09-08T02:20:17.814Z,100263.19
2017-09-08T02:22:50.015Z,100264.05
2017-09-08T02:25:21.425Z,100266.44
2017-09-08T02:27:53.048Z,100265.19
2017-09-08T02:30:24.321Z,100259.95
2017-09-08T02:32:55.484Z,100260.67
2017-09-08T02:35:27.032Z,100251.50
2017-09-08T02:37:58.222Z,100252.99
2017-09-08T02:40:29.405Z,100240.44
2017-09-08T02:43:00.580Z,100235.05
2017-09-08T02:45:31.758Z,100236.59
2017-09-08T02:48:11.612Z,100227.58
2017-09-08T02:50:46.870Z,100219.20
2017-09-08T02:53:18.145Z,100220.44
2017-09-08T02:55:51.457Z,100216.47
2017-09-08T02:58:22.672Z,100218.13
2017-09-08T03:00:54.214Z,100226.23
2017-09-08T03:03:42.239Z,100211.27
2017-09-08T03:06:15.509Z,100225.25
2017-09-08T03:08:47.523Z,100223.33
2017-09-08T03:11:19.994Z,100220.12
2017-09-08T03:13:51.928Z,100221.02
2017-09-08T03:16:23.556Z,100222.32
2017-09-08T03:18:57.236Z,100215.88
2017-09-08T03:21:28.421Z,100216.63
2017-09-08T03:23:59.648Z,100213.00
2017-09-08T03:26:32.655Z,100210.69
2017-09-08T03:29:04.053Z,100207.10
2017-09-08T03:31:35.196Z,100209.20
2017-09-08T03:34:07.016Z,100213.45
2017-09-08T03:36:38.220Z,100206.14
2017-09-08T03:39:09.403Z,100200.42
2017-09-08T03:41:40.615Z,100195.00
2017-09-08T03:44:12.612Z,100197.64
2017-09-08T03:46:43.923Z,100193.06
2017-09-08T03:49:15.172Z,100192.94
2017-09-08T03:51:46.904Z,100191.06
2017-09-08T03:54:18.229Z,100191.95
2017-09-08T03:56:49.793Z,100190.94
2017-09-08T03:59:21.073Z,100194.47
2017-09-08T04:01:54.018Z,100191.81
2017-09-08T04:04:25.272Z,100190.75
2017-09-08T04:06:56.677Z,100191.36
2017-09-08T04:09:27.917Z,100191.72
2017-09-08T04:11:59.139Z,100187.30
2017-09-08T04:14:30.488Z,100189.06
2017-09-08T04:17:01.700Z,100180.19
2017-09-08T04:19:34.253Z,100183.14
2017-09-08T04:22:05.823Z,100183.02
2017-09-08T04:24:37.101Z,100175.55
2017-09-08T04:27:08.723Z,100177.25
2017-09-08T04:29:40.009Z,100174.59
2017-09-08T04:32:11.401Z,100178.27
2017-09-08T04:34:44.893Z,100174.78
2017-09-08T04:37:16.049Z,100169.20
2017-09-08T04:39:47.295Z,100159.48
2017-09-08T04:42:18.678Z,100167.28
2017-09-08T04:44:50.295Z,100166.52
2017-09-08T04:47:21.854Z,100166.44
2017-09-08T04:49:53.497Z,100166.47
2017-09-08T04:52:24.830Z,100167.44
2017-09-08T04:54:56.268Z,100167.70
2017-09-08T04:57:27.551Z,100169.20
2017-09-08T04:59:59.338Z,100171.53
2017-09-08T05:02:30.934Z,100173.98
2017-09-08T05:05:02.613Z,100176.66
2017-09-08T05:07:33.823Z,100174.25
2017-09-08T05:10:06.074Z,100179.11
2017-09-08T05:12:37.375Z,100176.80
2017-09-08T05:15:08.713Z,100171.78
2017-09-08T05:17:39.941Z,100168.98
2017-09-08T05:20:12.195Z,100162.50
2017-09-08T05:22:43.564Z,100165.33
2017-09-08T05:25:14.833Z,100163.72
2017-09-08T05:27:47.020Z,100160.39
2017-09-08T05:30:19.196Z,100157.29
2017-09-08T05:32:50.867Z,100151.33
2017-09-08T05:35:26.116Z,100152.06
2017-09-08T05:37:57.274Z,100150.64
2017-09-08T05:45:05.765Z,100138.28
2017-09-08T05:47:37.082Z,100135.16
2017-09-08T05:50:08.885Z,100137.65
2017-09-08T05:52:40.429Z,100138.67
2017-09-08T05:55:11.714Z,100121.73
2017-09-08T05:57:43.024Z,100125.02
2017-09-08T06:00:14.534Z,100119.39
2017-09-08T06:02:46.102Z,100111.23
2017-09-08T06:05:17.706Z,100106.84
2017-09-08T06:07:49.757Z,100111.84
2017-09-08T06:10:21.237Z,100108.07
2017-09-08T06:12:52.664Z,100110.97
2017-09-08T06:20:05.393Z,100118.23
2017-09-08T06:22:36.688Z,100120.97
2017-09-08T06:25:08.322Z,100111.59
2017-09-08T06:27:45.662Z,100112.30
2017-09-08T06:30:17.336Z,100110.29
2017-09-08T06:32:49.234Z,100099.53
2017-09-08T06:35:22.015Z,100102.91
2017-09-08T06:57:33.005Z,100090.95
2017-09-08T07:05:55.036Z,100087.77
2017-09-08T07:08:26.222Z,100089.23
2017-09-08T07:10:58.029Z,100095.69
2017-09-08T07:13:29.977Z,100090.28
2017-09-08T07:16:01.946Z,100089.57
2017-09-08T07:18:33.613Z,100081.11
2017-09-08T07:21:05.122Z,100077.05
2017-09-08T07:23:36.903Z,100079.08
2017-09-08T07:26:08.402Z,100076.02
2017-09-08T07:28:39.584Z,100076.48
2017-09-08T07:31:11.214Z,100077.05
2017-09-08T07:33:42.337Z,100082.28
2017-09-08T07:36:16.149Z,100076.27
2017-09-08T07:38:47.877Z,100084.94
2017-09-08T07:41:19.048Z,100078.48
2017-09-08T07:43:50.350Z,100070.13
2017-09-08T07:46:21.962Z,100078.14
2017-09-08T07:48:53.354Z,100075.70
2017-09-08T07:51:25.286Z,100073.47
2017-09-08T07:53:56.773Z,100075.14
2017-09-08T07:56:28.106Z,100063.36
2017-09-08T07:58:59.515Z,100070.56
2017-09-08T08:01:32.247Z,100070.13
2017-09-08T08:04:04.748Z,100064.35
2017-09-08T08:06:36.232Z,100062.87
2017-09-08T08:09:07.506Z,100059.84
2017-09-08T08:11:38.716Z,100061.52
2017-09-08T08:14:11.442Z,100061.33
2017-09-08T08:16:44.086Z,100059.67
2017-09-08T08:19:15.368Z,100058.82
2017-09-08T08:21:46.831Z,100059.20
2017-09-08T08:24:18.191Z,100049.63
2017-09-08T08:30:17.349Z,100062.19
2017-09-08T08:33:13.696Z,100063.94
2017-09-08T08:35:45.357Z,100062.41
2017-09-08T08:38:25.019Z,100063.65
2017-09-08T08:40:58.818Z,100063.02
2017-09-08T08:43:32.823Z,100060.38
2017-09-08T08:46:05.340Z,100064.81
2017-09-08T08:48:36.653Z,100056.17
2017-09-08T08:51:07.782Z,100053.75
2017-09-08T08:53:39.176Z,100056.67
2017-09-08T08:56:11.523Z,100052.49
2017-09-08T08:58:43.435Z,100046.44
2017-09-08T09:01:14.812Z,100043.44
2017-09-08T09:03:47.539Z,100049.12
2017-09-08T09:06:18.785Z,100045.33
2017-09-08T09:08:50.324Z,100034.57
2017-09-08T09:11:21.451Z,100039.61
2017-09-08T09:13:54.708Z,100032.47
2017-09-08T09:16:26.186Z,100030.20
2017-09-08T09:18:57.487Z,100031.25
2017-09-08T09:21:31.746Z,100034.34
2017-09-08T09:24:05.068Z,100027.34
2017-09-08T09:26:36.746Z,100022.45
2017-09-08T09:32:10.741Z,100022.43
2017-09-08T09:34:42.714Z,100022.28
2017-09-08T09:37:15.459Z,100018.20
2017-09-08T09:39:47.502Z,100009.19
2017-09-08T09:42:20.534Z,100008.31
2017-09-08T09:44:52.771Z,100007.78
2017-09-08T09:47:23.916Z,100002.96
2017-09-08T09:49:55.063Z,99997.89
2017-09-08T09:52:35.539Z,99998.60
2017-09-08T09:55:07.010Z,99990.12
2017-09-08T09:57:38.525Z,99976.59
2017-09-08T10:00:11.340Z,99978.48
2017-09-08T10:02:42.642Z,99985.25
2017-09-08T10:05:14.140Z,99967.23
2017-09-08T10:07:46.254Z,99970.22
2017-09-08T10:10:19.210Z,99963.53
2017-09-08T10:15:56.383Z,99966.28
2017-09-08T10:18:27.858Z,99959.80
2017-09-08T10:21:00.311Z,99946.98
2017-09-08T10:23:31.887Z,99955.80
2017-09-08T10:26:05.684Z,99941.88
2017-09-08T10:28:36.907Z,99935.66
2017-09-08T10:31:08.251Z,99935.76
2017-09-08T10:33:39.563Z,99933.05
2017-09-08T10:36:13.613Z,99924.28
2017-09-08T10:38:46.098Z,99914.41
2017-09-08T10:41:17.417Z,99922.62
2017-09-08T10:43:50.968Z,99912.95
2017-09-08T10:46:22.901Z,99898.73
2017-09-08T10:48:54.186Z,99901.47
2017-09-08T10:51:25.658Z,99893.13
2017-09-08T10:53:56.781Z,99889.55
2017-09-08T10:56:27.958Z,99894.23
2017-09-08T10:59:02.187Z,99892.59
2017-09-08T11:01:33.396Z,99888.22
2017-09-08T11:04:05.121Z,99888.94
2017-09-08T11:06:36.610Z,99889.87
2017-09-08T11:09:07.897Z,99890.60
2017-09-08T11:11:39.382Z,99886.67
2017-09-08T11:14:11.265Z,99887.34
2017-09-08T11:16:42.548Z,99889.83
2017-09-08T11:19:15.798Z,99888.29
2017-09-08T11:21:49.423Z,99884.48
2017-09-08T11:24:21.730Z,99885.53
2017-09-08T11:26:53.001Z,99886.61
2017-09-08T11:29:24.595Z,99877.32
2017-09-08T11:31:55.862Z,99883.05
2017-09-08T11:36:34.035Z,99880.43
2017-09-08T11:39:07.359Z,99887.22
2017-09-08T11:41:39.051Z,99881.79
2017-09-08T11:44:17.618Z,99873.13
2017-09-08T11:46:50.281Z,99872.79
2017-09-08T11:49:21.819Z,99866.53
2017-09-08T11:51:58.089Z,99860.18
2017-09-08T11:54:30.647Z,99863.09
2017-09-08T11:57:03.560Z,99854.29
2017-09-08T11:59:37.407Z,99849.95
2017-09-08T12:02:11.307Z,99843.94
2017-09-08T12:04:42.589Z,99841.05
2017-09-08T12:07:15.381Z,99834.79
2017-09-08T12:09:47.744Z,99837.77
2017-09-08T12:12:21.400Z,99834.27
2017-09-08T12:14:54.089Z,99823.08
2017-09-08T12:17:26.565Z,99820.83
2017-09-08T12:19:58.069Z,99826.67
2017-09-08T12:22:30.909Z,99818.72
2017-09-08T12:25:03.522Z,99822.59
2017-09-08T12:27:35.969Z,99821.75
2017-09-08T12:30:10.863Z,99816.26
2017-09-08T12:32:42.526Z,99818.30
2017-09-08T12:35:16.351Z,99819.20
2017-09-08T12:37:53.937Z,99810.60
2017-09-08T12:40:29.382Z,99804.94
2017-09-08T12:43:01.533Z,99796.55
2017-09-08T12:45:33.779Z,99790.91
2017-09-08T12:48:07.207Z,99788.23
2017-09-08T12:50:40.318Z,99774.77
2017-09-08T12:53:12.738Z,99772.94
2017-09-08T12:55:44.168Z,99771.80
2017-09-08T12:58:16.472Z,99754.49
2017-09-08T13:00:49.029Z,99747.49
2017-09-08T13:03:24.158Z,99751.34
2017-09-08T13:06:09.366Z,99744.59
2017-09-08T13:08:43.142Z,99730.43
2017-09-08T13:11:23.267Z,99740.53
2017-09-08T13:13:56.115Z,99726.30
2017-09-08T13:17:02.785Z,99731.70
2017-09-08T13:19:34.391Z,99740.46
2017-09-08T13:22:05.941Z,99738.11
2017-09-08T13:24:37.675Z,99739.55
2017-09-08T13:27:09.022Z,99731.81
2017-09-08T13:29:40.422Z,99728.44
2017-09-08T13:32:18.706Z,99712.69
2017-09-08T13:34:51.222Z,99707.64
2017-09-08T13:37:22.677Z,99710.19
2017-09-08T13:39:54.723Z,99701.08
2017-09-08T13:42:28.472Z,99698.20
2017-09-08T13:44:59.608Z,99697.22
2017-09-08T13:47:33.200Z,99698.09
2017-09-08T13:53:00.119Z,99704.15
2017-09-08T13:55:31.574Z,99703.04
2017-09-08T13:58:04.630Z,99687.95
2017-09-08T14:00:36.654Z,99694.12
2017-09-08T14:03:08.535Z,99688.13
2017-09-08T14:05:40.151Z,99683.55
2017-09-08T14:14:13.756Z,99683.50
2017-09-08T14:22:52.773Z,99688.37
2017-09-08T14:29:57.633Z,99673.48
2017-09-08T14:38:29.073Z,99660.80
2017-09-08T14:43:58.355Z,99657.47
2017-09-08T14:52:22.677Z,99660.42
2017-09-08T15:06:33.057Z,99635.12
2017-09-08T15:09:17.094Z,99638.28
2017-09-08T15:11:48.595Z,99627.84
2017-09-08T15:14:19.877Z,99624.17
2017-09-08T15:16:51.853Z,99629.95
2017-09-08T15:19:23.228Z,99627.03
2017-09-08T15:21:54.607Z,99629.04
2017-09-08T15:24:26.470Z,99636.63
2017-09-08T15:26:57.829Z,99626.87
2017-09-08T15:29:30.599Z,99631.02
2017-09-08T15:34:57.052Z,99622.27
2017-09-08T15:37:30.117Z,99621.08
2017-09-08T15:40:06.148Z,99615.23
2017-09-08T15:45:14.976Z,99606.17
2017-09-08T15:47:46.522Z,99601.16
2017-09-08T15:50:17.836Z,99594.89
2017-09-08T15:53:08.192Z,99596.30
2017-09-08T15:55:39.408Z,99597.47
2017-09-08T15:58:12.542Z,99592.97
2017-09-08T16:00:47.896Z,99593.88
2017-09-08T16:03:23.457Z,99587.52
2017-09-08T16:05:54.994Z,99590.52
2017-09-08T16:08:26.863Z,99584.44
2017-09-08T16:11:00.250Z,99582.50
2017-09-08T16:13:33.270Z,99578.67
2017-09-08T16:16:08.141Z,99573.23
2017-09-08T16:21:42.682Z,99564.55
2017-09-08T16:24:14.218Z,99557.56
2017-09-08T16:27:09.998Z,99553.80
2017-09-08T16:29:41.489Z,99554.23
2017-09-08T16:32:12.650Z,99548.64
2017-09-08T16:34:45.736Z,99551.03
2017-09-08T16:37:17.636Z,99560.28
2017-09-08T16:39:49.898Z,99558.51
2017-09-08T16:42:21.817Z,99560.30
2017-09-08T16:44:53.564Z,99560.38
2017-09-08T16:47:25.297Z,99561.47
2017-09-08T16:49:56.665Z,99550.56
2017-09-08T16:52:29.644Z,99556.86
2017-09-08T16:55:01.093Z,99550.63
2017-09-08T16:57:33.069Z,99552.72
2017-09-08T17:00:05.242Z,99543.44
2017-09-08T17:02:36.656Z,99537.27
2017-09-08T17:05:08.091Z,99528.37
2017-09-08T17:07:40.967Z,99528.45
2017-09-08T17:19:03.515Z,99532.30
2017-09-08T17:30:31.528Z,99529.25
2017-09-08T17:33:46.150Z,99530.98
2017-09-08T17:39:26.648Z,99516.77
2017-09-08T17:44:53.384Z,99511.54
2017-09-08T17:47:34.697Z,99515.45
2017-09-08T17:57:56.603Z,99510.42
2017-09-08T18:00:35.613Z,99509.84
2017-09-08T18:03:22.857Z,99510.84
2017-09-08T18:05:56.890Z,99514.02
2017-09-08T18:11:39.260Z,99499.42
2017-09-08T18:14:29.542Z,99503.88
2017-09-08T18:23:09.071Z,99504.77
2017-09-08T18:26:13.214Z,99494.28
2017-09-08T18:37:36.205Z,99487.63
2017-09-08T18:43:15.049Z,99483.13
2017-09-08T18:48:46.218Z,99480.83
2017-09-08T18:54:22.288Z,99459.09
2017-09-08T19:06:09.549Z,99454.52
2017-09-08T19:26:25.511Z,99442.47
2017-09-08T19:29:00.034Z,99435.44
2017-09-08T19:31:35.549Z,99438.03
2017-09-08T19:34:14.686Z,99426.27
2017-09-08T19:36:48.837Z,99421.31
2017-09-08T19:39:23.959Z,99428.35
2017-09-08T19:41:57.011Z,99428.61
2017-09-08T19:44:46.125Z,99427.16
2017-09-08T19:47:21.142Z,99428.39
2017-09-08T19:49:57.674Z,99420.88
2017-09-08T20:07:08.932Z,99386.59
2017-09-08T20:27:16.338Z,99369.21
2017-09-08T20:38:37.632Z,99366.42
2017-09-08T20:55:48.411Z,99351.22
2017-09-08T21:01:25.129Z,99356.18
2017-09-08T21:09:50.073Z,99350.86
2017-09-08T21:12:26.533Z,99344.80
2017-09-08T21:18:09.917Z,99339.33
2017-09-08T21:20:45.244Z,99332.00
2017-09-08T21:26:24.426Z,99335.89
2017-09-08T21:28:58.474Z,99333.66
2017-09-08T21:34:17.260Z,99337.77
2017-09-08T21:36:51.669Z,99329.96
2017-09-08T21:39:26.240Z,99326.40
2017-09-08T21:42:05.015Z,99318.30
2017-09-08T21:44:36.735Z,99320.19
2017-09-08T21:50:11.376Z,99314.30
2017-09-08T21:52:46.165Z,99302.60
2017-09-08T21:55:23.786Z,99301.44
2017-09-08T21:57:59.739Z,99299.27
2017-09-08T22:00:33.362Z,99295.89
2017-09-08T22:16:00.126Z,99282.67
2017-09-08T22:18:39.102Z,99290.11
2017-09-08T22:21:16.975Z,99278.23
2017-09-08T22:23:55.371Z,99280.92
2017-09-08T22:26:42.766Z,99274.31
2017-09-08T22:35:12.893Z,99265.57
2017-09-08T22:37:56.792Z,99259.52
2017-09-08T22:40:45.325Z,99261.66
2017-09-08T22:43:23.600Z,99258.45
2017-09-08T22:46:01.751Z,99256.86
2017-09-08T22:48:38.105Z,99249.28
2017-09-08T22:51:18.628Z,99244.72
2017-09-08T22:53:56.475Z,99247.60
2017-09-08T22:56:28.259Z,99238.70
2017-09-08T22:59:13.462Z,99230.31
2017-09-08T23:02:49.222Z,99234.52
2017-09-08T23:05:21.233Z,99222.44
2017-09-08T23:07:54.656Z,99219.11
2017-09-08T23:13:39.776Z,99210.41
2017-09-08T23:22:04.442Z,99199.91
2017-09-08T23:24:35.874Z,99206.39
2017-09-08T23:27:07.562Z,99204.28
2017-09-08T23:29:39.116Z,99209.69
2017-09-08T23:32:10.717Z,99201.34
2017-09-08T23:34:42.457Z,99201.98
2017-09-08T23:37:14.274Z,99194.63
2017-09-08T23:39:51.025Z,99195.19
2017-09-08T23:42:31.507Z,99195.83
2017-09-08T23:45:03.558Z,99195.05
2017-09-08T23:47:36.293Z,99187.09
2017-09-08T23:50:09.119Z,99191.75
2017-09-08T23:52:41.322Z,99190.36
2017-09-08T23:55:12.798Z,99179.75
2017-09-08T23:57:45.597Z,99174.54
